createdAt,value
2024-01-01T00:00:04.596Z,53.07
2024-01-01T00:01:04.679Z,52.08
2024-01-01T00:02:04.640Z,50.63
2024-01-01T00:03:04.615Z,52.90
2024-01-01T00:04:04.591Z,53.10
2024-01-01T00:05:04.660Z,53.21
2024-01-01T00:06:04.622Z,54.08
2024-01-01T00:07:04.693Z,54.05
2024-01-01T00:08:05.134Z,56.02
2024-01-01T00:09:04.778Z,55.21
2024-01-01T00:10:04.856Z,53.47
2024-01-01T00:11:04.880Z,53.12
2024-01-01T00:12:04.935Z,51.27
2024-01-01T00:13:04.981Z,54.21
2024-01-01T00:14:05.135Z,51.77
2024-01-01T00:15:05.140Z,55.11
2024-01-01T00:16:05.189Z,53.41
2024-01-01T00:17:05.243Z,51.79
2024-01-01T00:18:05.614Z,53.84
2024-01-01T00:19:05.388Z,55.36
2024-01-01T00:20:05.431Z,56.36
2024-01-01T00:21:05.453Z,51.71
2024-01-01T00:22:05.551Z,55.06
2024-01-01T00:23:05.687Z,52.85
2024-01-01T00:24:05.670Z,53.14
2024-01-01T00:25:08.850Z,54.63
2024-01-01T00:26:05.683Z,53.36
2024-01-01T00:27:05.629Z,54.72
2024-01-01T00:28:05.885Z,54.84
2024-01-01T00:29:05.733Z,54.12
2024-01-01T00:30:05.706Z,54.70
2024-01-01T00:31:05.671Z,54.64
2024-01-01T00:32:05.691Z,55.32
2024-01-01T00:33:05.720Z,54.10
2024-01-01T00:34:05.701Z,54.49
2024-01-01T00:35:05.732Z,52.14
2024-01-01T00:36:05.658Z,52.78
2024-01-01T00:37:05.655Z,53.62
2024-01-01T00:38:06.010Z,54.66
2024-01-01T00:39:05.706Z,53.09
2024-01-01T00:40:07.387Z,52.17
2024-01-01T00:41:05.667Z,52.43
2024-01-01T00:42:05.682Z,51.19
2024-01-01T00:43:05.646Z,52.72
2024-01-01T00:44:05.729Z,53.62
2024-01-01T00:45:05.793Z,54.97
2024-01-01T00:46:05.671Z,52.65
2024-01-01T00:47:05.766Z,51.93
2024-01-01T00:48:06.276Z,52.69
2024-01-01T00:49:05.730Z,52.76
2024-01-01T00:50:05.692Z,55.76
2024-01-01T00:51:05.681Z,53.39
2024-01-01T00:52:05.718Z,54.72
2024-01-01T00:53:05.941Z,52.13
2024-01-01T00:54:05.810Z,53.71
2024-01-01T00:55:05.883Z,55.88
2024-01-01T00:56:05.933Z,53.17
2024-01-01T00:57:05.973Z,52.49
2024-01-01T00:58:06.303Z,54.62
2024-01-01T00:59:06.103Z,57.11
2024-01-01T01:00:06.229Z,54.85
2024-01-01T01:01:06.185Z,55.85
2024-01-01T01:02:06.329Z,53.83
2024-01-01T01:03:06.312Z,51.08
2024-01-01T01:04:06.371Z,52.57
2024-01-01T01:05:07.211Z,54.56
2024-01-01T01:06:14.278Z,55.54
2024-01-01T01:07:07.448Z,53.44
2024-01-01T01:08:06.862Z,54.89
2024-01-01T01:09:06.499Z,53.50
2024-01-01T01:10:06.475Z,53.27
2024-01-01T01:11:06.607Z,51.86
2024-01-01T01:12:06.497Z,53.31
2024-01-01T01:13:06.451Z,53.89
2024-01-01T01:14:06.556Z,51.39
2024-01-01T01:15:06.495Z,52.93
2024-01-01T01:16:06.528Z,54.09
2024-01-01T01:17:06.683Z,53.88
2024-01-01T01:18:06.930Z,52.91
2024-01-01T01:19:06.723Z,52.90
2024-01-01T01:20:08.311Z,54.47
2024-01-01T01:21:06.830Z,52.18
2024-01-01T01:22:06.834Z,53.18
2024-01-01T01:23:06.944Z,56.90
2024-01-01T01:24:06.961Z,53.00
2024-01-01T01:25:06.984Z,52.32
2024-01-01T01:26:07.105Z,54.27
2024-01-01T01:27:07.109Z,50.89
2024-01-01T01:28:07.349Z,55.80
2024-01-01T01:29:07.315Z,54.14
2024-01-01T01:30:07.216Z,53.81
2024-01-01T01:31:07.256Z,52.76
2024-01-01T01:32:07.339Z,54.24
2024-01-01T01:33:07.407Z,53.98
2024-01-01T01:34:07.436Z,52.45
2024-01-01T01:35:07.605Z,51.10
2024-01-01T01:36:07.582Z,52.09
2024-01-01T01:37:07.599Z,53.57
2024-01-01T01:38:07.902Z,53.57
2024-01-01T01:39:07.743Z,53.23
2024-01-01T01:40:07.832Z,52.42
2024-01-01T01:41:07.969Z,51.76
2024-01-01T01:42:07.920Z,52.92
2024-01-01T01:43:07.977Z,54.71
2024-01-01T01:44:08.113Z,52.82
2024-01-01T01:45:08.107Z,53.13
2024-01-01T01:46:08.183Z,54.80
2024-01-01T01:47:08.281Z,52.85
2024-01-01T01:48:08.552Z,52.67
2024-01-01T01:49:08.363Z,52.75
2024-01-01T01:50:08.522Z,53.58
2024-01-01T01:51:08.533Z,55.21
2024-01-01T01:52:08.575Z,54.82
2024-01-01T01:53:08.562Z,50.36
2024-01-01T01:54:08.691Z,51.85
2024-01-01T01:55:08.703Z,55.15
2024-01-01T01:56:08.794Z,52.40
2024-01-01T01:57:08.775Z,52.63
2024-01-01T01:58:08.813Z,55.43
2024-01-01T01:59:08.937Z,52.08
2024-01-01T02:00:08.882Z,54.19
2024-01-01T02:01:08.959Z,53.72
2024-01-01T02:02:09.068Z,55.20
2024-01-01T02:03:09.111Z,53.40
2024-01-01T02:04:09.144Z,53.23
2024-01-01T02:05:09.333Z,53.01
2024-01-01T02:06:09.301Z,55.14
2024-01-01T02:07:09.283Z,55.04
2024-01-01T02:08:09.729Z,56.54
2024-01-01T02:09:09.427Z,51.90
2024-01-01T02:10:09.489Z,57.71
2024-01-01T02:11:09.682Z,51.28
2024-01-01T02:12:09.643Z,52.17
2024-01-01T02:13:09.702Z,56.57
2024-01-01T02:14:09.781Z,51.96
2024-01-01T02:15:09.830Z,53.52
2024-01-01T02:16:09.905Z,52.21
2024-01-01T02:17:09.965Z,50.89
2024-01-01T02:18:10.323Z,53.71
2024-01-01T02:19:10.264Z,51.55
2024-01-01T02:20:16.720Z,54.33
2024-01-01T02:21:11.105Z,54.42
2024-01-01T02:22:10.115Z,54.36
2024-01-01T02:23:10.176Z,54.61
2024-01-01T02:24:10.196Z,55.46
2024-01-01T02:25:10.134Z,54.16
2024-01-01T02:26:10.176Z,54.60
2024-01-01T02:27:10.110Z,53.43
2024-01-01T02:28:10.134Z,54.75
2024-01-01T02:29:10.179Z,56.31
2024-01-01T02:30:10.173Z,54.76
2024-01-01T02:31:10.238Z,54.21
2024-01-01T02:32:10.352Z,53.60
2024-01-01T02:33:10.490Z,57.10
2024-01-01T02:34:10.440Z,54.01
2024-01-01T02:35:10.888Z,54.03
2024-01-01T02:36:10.494Z,54.91
2024-01-01T02:37:10.572Z,52.11
2024-01-01T02:38:11.008Z,50.68
2024-01-01T02:39:10.673Z,53.98
2024-01-01T02:40:10.720Z,56.12
2024-01-01T02:41:10.884Z,50.40
2024-01-01T02:42:10.841Z,53.99
2024-01-01T02:43:10.865Z,53.26
2024-01-01T02:44:11.029Z,53.55
2024-01-01T02:45:10.975Z,54.92
2024-01-01T02:46:11.039Z,53.12
2024-01-01T02:47:11.151Z,54.40
2024-01-01T02:48:11.624Z,56.71
2024-01-01T02:49:11.285Z,54.95
2024-01-01T02:50:11.381Z,55.49
2024-01-01T02:51:11.377Z,53.48
2024-01-01T02:52:11.384Z,54.59
2024-01-01T02:53:11.472Z,53.53
2024-01-01T02:54:11.436Z,53.41
2024-01-01T02:55:11.483Z,53.07
2024-01-01T02:56:11.614Z,53.02
2024-01-01T02:57:11.565Z,54.75
2024-01-01T02:58:11.567Z,52.21
2024-01-01T02:59:11.620Z,51.36
2024-01-01T03:00:11.610Z,55.05
2024-01-01T03:01:11.618Z,56.67
2024-01-01T03:02:11.723Z,53.15
2024-01-01T03:03:11.637Z,53.62
2024-01-01T03:04:11.671Z,55.41
2024-01-01T03:05:11.790Z,53.75
2024-01-01T03:06:11.724Z,53.60
2024-01-01T03:07:11.710Z,53.49
2024-01-01T03:08:11.725Z,52.68
2024-01-01T03:09:11.744Z,55.10
2024-01-01T03:10:11.746Z,55.21
2024-01-01T03:11:11.842Z,55.22
2024-01-01T03:12:11.793Z,53.02
2024-01-01T03:13:11.792Z,52.95
2024-01-01T03:14:11.930Z,54.95
2024-01-01T03:15:11.883Z,53.84
2024-01-01T03:16:11.914Z,55.10
2024-01-01T03:17:11.964Z,53.30
2024-01-01T03:18:11.965Z,52.78
2024-01-01T03:19:12.044Z,54.14
2024-01-01T03:20:12.044Z,55.25
2024-01-01T03:21:12.002Z,57.08
2024-01-01T03:22:12.037Z,54.01
2024-01-01T03:23:12.083Z,53.49
2024-01-01T03:24:12.129Z,54.74
2024-01-01T03:25:12.118Z,54.17
2024-01-01T03:26:12.226Z,55.35
2024-01-01T03:27:12.164Z,56.02
2024-01-01T03:28:12.188Z,55.97
2024-01-01T03:29:12.280Z,57.66
2024-01-01T03:30:12.310Z,54.82
2024-01-01T03:31:12.260Z,56.82
2024-01-01T03:32:12.401Z,55.44
2024-01-01T03:33:12.387Z,55.65
2024-01-01T03:34:12.380Z,54.10
2024-01-01T03:35:12.546Z,54.78
2024-01-01T03:36:12.442Z,57.45
2024-01-01T03:37:12.525Z,55.31
2024-01-01T03:38:12.658Z,58.46
2024-01-01T03:39:12.597Z,55.21
2024-01-01T03:40:12.649Z,54.32
2024-01-01T03:41:12.742Z,54.69
2024-01-01T03:42:12.661Z,55.12
2024-01-01T03:43:12.681Z,52.89
2024-01-01T03:44:12.965Z,55.89
2024-01-01T03:45:12.770Z,57.17
2024-01-01T03:46:12.777Z,54.98
2024-01-01T03:47:12.976Z,56.14
2024-01-01T03:48:13.347Z,52.46
2024-01-01T03:49:13.019Z,52.58
2024-01-01T03:50:13.097Z,53.25
2024-01-01T03:51:13.093Z,53.71
2024-01-01T03:52:13.175Z,55.00
2024-01-01T03:53:13.298Z,55.73
2024-01-01T03:54:13.973Z,57.99
2024-01-01T03:55:13.195Z,56.84
2024-01-01T03:56:13.339Z,56.21
2024-01-01T03:57:13.268Z,54.32
2024-01-01T03:58:13.265Z,53.26
2024-01-01T03:59:13.303Z,54.48
2024-01-01T04:00:13.670Z,56.63
2024-01-01T04:01:13.391Z,54.96
2024-01-01T04:02:13.589Z,53.02
2024-01-01T04:03:13.440Z,55.32
2024-01-01T04:04:13.413Z,55.54
2024-01-01T04:05:13.553Z,56.96
2024-01-01T04:06:13.562Z,55.10
2024-01-01T04:07:13.564Z,55.12
2024-01-01T04:08:13.605Z,55.05
2024-01-01T04:09:13.604Z,57.09
2024-01-01T04:10:13.633Z,55.45
2024-01-01T04:11:13.789Z,53.21
2024-01-01T04:12:13.688Z,54.67
2024-01-01T04:13:13.687Z,56.69
2024-01-01T04:14:13.716Z,54.98
2024-01-01T04:15:13.798Z,53.33
2024-01-01T04:16:13.697Z,52.96
2024-01-01T04:17:13.818Z,56.03
2024-01-01T04:18:13.878Z,56.22
2024-01-01T04:19:13.861Z,54.07
2024-01-01T04:20:13.949Z,52.80
2024-01-01T04:21:13.946Z,54.09
2024-01-01T04:22:13.939Z,53.74
2024-01-01T04:23:14.014Z,57.25
2024-01-01T04:24:14.018Z,55.70
2024-01-01T04:25:14.004Z,54.99
2024-01-01T04:26:14.080Z,56.64
2024-01-01T04:27:14.080Z,56.02
2024-01-01T04:28:14.134Z,54.28
2024-01-01T04:29:14.232Z,56.05
2024-01-01T04:30:14.186Z,55.09
2024-01-01T04:31:14.161Z,53.65
2024-01-01T04:32:14.297Z,53.57
2024-01-01T04:33:14.339Z,54.06
2024-01-01T04:34:14.245Z,53.34
2024-01-01T04:35:14.249Z,53.27
2024-01-01T04:36:14.252Z,53.27
2024-01-01T04:37:14.256Z,53.27
2024-01-01T04:38:14.308Z,53.27
2024-01-01T04:39:14.252Z,53.27
2024-01-01T04:40:14.249Z,53.27
2024-01-01T04:41:14.389Z,53.27
2024-01-01T04:42:14.289Z,53.27
2024-01-01T04:43:14.293Z,53.27
2024-01-01T04:44:14.367Z,53.27
2024-01-01T04:45:14.270Z,53.27
2024-01-01T04:46:21.552Z,50.00
2024-01-01T04:47:21.721Z,50.00
2024-01-01T04:48:21.647Z,50.00
2024-01-01T04:49:21.723Z,50.00
2024-01-01T04:50:21.568Z,50.00
2024-01-01T04:51:24.059Z,49.81
2024-01-01T04:52:21.546Z,40.96
2024-01-01T04:53:21.601Z,33.26
2024-01-01T04:54:21.567Z,25.90
2024-01-01T04:55:21.561Z,18.18
2024-01-01T04:56:21.599Z,12.46
2024-01-01T04:57:21.578Z,28.19
2024-01-01T04:58:21.557Z,41.66
2024-01-01T04:59:21.601Z,51.49
2024-01-01T05:00:21.572Z,50.36
2024-01-01T05:01:21.634Z,50.93
2024-01-01T05:02:21.683Z,50.00
2024-01-01T05:03:21.622Z,50.00
2024-01-01T05:04:21.610Z,50.07
2024-01-01T05:05:21.618Z,51.16
2024-01-01T05:06:21.654Z,50.89
2024-01-01T05:07:21.551Z,53.46
2024-01-01T05:08:21.642Z,54.89
2024-01-01T05:09:21.564Z,52.48
2024-01-01T05:10:21.568Z,50.00
2024-01-01T05:11:21.591Z,52.64
2024-01-01T05:12:21.606Z,52.38
2024-01-01T05:13:21.604Z,50.96
2024-01-01T05:14:21.617Z,50.09
2024-01-01T05:15:21.619Z,53.02
2024-01-01T05:16:21.583Z,53.08
2024-01-01T05:17:21.775Z,54.12
2024-01-01T05:18:21.721Z,53.09
2024-01-01T05:19:21.601Z,51.92
2024-01-01T05:20:21.580Z,54.27
2024-01-01T05:21:21.570Z,50.80
2024-01-01T05:22:21.557Z,50.67
2024-01-01T05:23:21.568Z,51.87
2024-01-01T05:24:21.586Z,53.46
2024-01-01T05:25:21.566Z,50.48
2024-01-01T05:26:21.603Z,51.79
2024-01-01T05:27:21.614Z,53.40
2024-01-01T05:28:21.603Z,52.44
2024-01-01T05:29:21.597Z,50.14
2024-01-01T05:30:21.604Z,51.44
2024-01-01T05:31:21.572Z,55.40
2024-01-01T05:32:21.888Z,53.82
2024-01-01T05:33:21.679Z,51.63
2024-01-01T05:34:21.660Z,50.84
2024-01-01T05:35:21.674Z,50.60
2024-01-01T05:36:21.620Z,50.69
2024-01-01T05:37:21.591Z,52.67
2024-01-01T05:38:21.652Z,52.74
2024-01-01T05:39:21.611Z,51.95
2024-01-01T05:40:21.572Z,52.94
2024-01-01T05:41:21.620Z,53.32
2024-01-01T05:42:21.591Z,51.01
2024-01-01T05:43:21.608Z,51.45
2024-01-01T05:44:21.637Z,50.89
2024-01-01T05:45:21.614Z,51.85
2024-01-01T05:46:21.573Z,54.06
2024-01-01T05:47:21.611Z,54.29
2024-01-01T05:48:26.805Z,54.16
2024-01-01T05:49:22.708Z,54.27
2024-01-01T05:50:21.626Z,54.17
2024-01-01T05:51:21.602Z,54.62
2024-01-01T05:52:21.631Z,54.42
2024-01-01T05:53:21.615Z,54.40
2024-01-01T05:54:21.608Z,54.13
2024-01-01T05:55:21.567Z,54.26
2024-01-01T05:56:21.595Z,55.62
2024-01-01T05:57:21.581Z,54.25
2024-01-01T05:58:21.613Z,55.41
2024-01-01T05:59:21.608Z,55.16
2024-01-01T06:00:21.608Z,53.19
2024-01-01T06:01:21.633Z,53.95
2024-01-01T06:02:21.588Z,52.55
2024-01-01T06:03:21.639Z,50.88
2024-01-01T06:04:21.600Z,54.72
2024-01-01T06:05:21.701Z,52.89
2024-01-01T06:06:21.578Z,52.73
2024-01-01T06:07:21.624Z,50.16
2024-01-01T06:08:21.660Z,52.72
2024-01-01T06:09:21.663Z,52.33
2024-01-01T06:10:21.645Z,54.83
2024-01-01T06:11:21.670Z,50.60
2024-01-01T06:12:21.667Z,55.41
2024-01-01T06:13:21.735Z,52.75
2024-01-01T06:14:21.719Z,52.80
2024-01-01T06:15:21.747Z,53.33
2024-01-01T06:16:21.769Z,53.69
2024-01-01T06:17:21.839Z,52.96
2024-01-01T06:18:21.953Z,53.80
2024-01-01T06:19:21.945Z,52.10
2024-01-01T06:20:21.858Z,51.89
2024-01-01T06:21:21.788Z,52.37
2024-01-01T06:22:21.811Z,54.35
2024-01-01T06:23:21.863Z,53.30
2024-01-01T06:24:21.839Z,52.45
2024-01-01T06:25:21.849Z,50.00
2024-01-01T06:26:21.891Z,53.66
2024-01-01T06:27:21.889Z,53.70
2024-01-01T06:28:21.879Z,52.32
2024-01-01T06:29:22.045Z,52.55
2024-01-01T06:30:22.058Z,53.12
2024-01-01T06:31:21.946Z,52.67
2024-01-01T06:32:21.972Z,50.00
2024-01-01T06:33:22.070Z,51.59
2024-01-01T06:34:22.000Z,53.81
2024-01-01T06:35:22.124Z,52.00
2024-01-01T06:36:22.092Z,52.06
2024-01-01T06:37:22.079Z,55.59
2024-01-01T06:38:22.149Z,50.99
2024-01-01T06:39:22.112Z,52.97
2024-01-01T06:40:22.140Z,51.86
2024-01-01T06:41:22.331Z,51.64
2024-01-01T06:42:22.238Z,51.92
2024-01-01T06:43:22.241Z,52.24
2024-01-01T06:44:22.341Z,54.36
2024-01-01T06:45:22.255Z,54.65
2024-01-01T06:46:22.235Z,50.00
2024-01-01T06:47:22.339Z,53.04
2024-01-01T06:48:22.383Z,51.25
2024-01-01T06:49:22.313Z,52.90
2024-01-01T06:50:22.443Z,53.34
2024-01-01T06:51:22.340Z,53.34
2024-01-01T06:52:22.346Z,52.44
2024-01-01T06:53:22.407Z,52.65
2024-01-01T06:54:22.375Z,53.88
2024-01-01T06:55:22.399Z,51.25
2024-01-01T06:56:22.479Z,53.68
2024-01-01T06:57:22.453Z,52.41
2024-01-01T06:58:22.469Z,54.36
2024-01-01T06:59:22.577Z,54.48
2024-01-01T07:00:22.620Z,51.03
2024-01-01T07:01:22.593Z,53.45
2024-01-01T07:02:22.687Z,56.18
2024-01-01T07:03:22.649Z,55.83
2024-01-01T07:04:22.626Z,53.31
2024-01-01T07:05:22.689Z,52.72
2024-01-01T07:06:22.760Z,53.73
2024-01-01T07:07:22.723Z,54.18
2024-01-01T07:08:22.824Z,52.88
2024-01-01T07:09:22.746Z,54.72
2024-01-01T07:10:22.844Z,52.75
2024-01-01T07:11:22.777Z,54.21
2024-01-01T07:12:22.766Z,50.75
2024-01-01T07:13:22.815Z,55.75
2024-01-01T07:14:22.838Z,53.98
2024-01-01T07:15:22.806Z,53.44
2024-01-01T07:16:22.824Z,51.49
2024-01-01T07:17:22.961Z,53.22
2024-01-01T07:18:22.909Z,50.78
2024-01-01T07:19:23.048Z,54.04
2024-01-01T07:20:22.871Z,53.29
2024-01-01T07:21:22.858Z,51.58
2024-01-01T07:22:22.860Z,50.62
2024-01-01T07:23:22.893Z,55.02
2024-01-01T07:24:22.890Z,52.65
2024-01-01T07:25:22.896Z,51.86
2024-01-01T07:26:22.936Z,52.02
2024-01-01T07:27:22.866Z,53.62
2024-01-01T07:28:22.911Z,53.42
2024-01-01T07:29:22.921Z,55.15
2024-01-01T07:30:22.987Z,50.41
2024-01-01T07:31:22.938Z,53.36
2024-01-01T07:32:23.020Z,51.47
2024-01-01T07:33:23.047Z,52.88
2024-01-01T07:34:23.011Z,52.84
2024-01-01T07:35:23.066Z,55.23
2024-01-01T07:36:24.504Z,55.67
2024-01-01T07:37:23.065Z,55.00
2024-01-01T07:38:23.062Z,52.00
2024-01-01T07:39:23.060Z,54.36
2024-01-01T07:40:23.098Z,54.33
2024-01-01T07:41:23.229Z,51.07
2024-01-01T07:42:23.102Z,52.40
2024-01-01T07:43:23.116Z,55.83
2024-01-01T07:44:23.207Z,54.47
2024-01-01T07:45:23.173Z,56.76
2024-01-01T07:46:23.161Z,52.81
2024-01-01T07:47:23.288Z,55.68
2024-01-01T07:48:23.288Z,55.98
2024-01-01T07:49:23.235Z,55.85
2024-01-01T07:50:23.369Z,50.28
2024-01-01T07:51:23.295Z,53.59
2024-01-01T07:52:23.289Z,50.03
2024-01-01T07:53:23.327Z,56.69
2024-01-01T07:54:23.319Z,55.31
2024-01-01T07:55:23.350Z,50.00
2024-01-01T07:56:23.369Z,54.15
2024-01-01T07:57:23.350Z,53.21
2024-01-01T07:58:23.484Z,51.28
2024-01-01T07:59:23.441Z,53.48
2024-01-01T08:00:23.388Z,52.77
2024-01-01T08:01:23.437Z,52.92
2024-01-01T08:02:25.642Z,51.35
2024-01-01T08:03:23.457Z,54.81
2024-01-01T08:04:23.441Z,51.92
2024-01-01T08:05:23.602Z,54.08
2024-01-01T08:06:23.416Z,52.07
2024-01-01T08:07:23.497Z,53.63
2024-01-01T08:08:23.490Z,52.85
2024-01-01T08:09:23.429Z,51.17
2024-01-01T08:10:23.468Z,52.54
2024-01-01T08:11:23.460Z,53.24
2024-01-01T08:12:23.411Z,50.86
2024-01-01T08:13:23.442Z,55.28
2024-01-01T08:14:23.518Z,53.05
2024-01-01T08:15:23.422Z,55.76
2024-01-01T08:16:23.453Z,52.18
2024-01-01T08:17:23.523Z,53.79
2024-01-01T08:18:23.444Z,54.66
2024-01-01T08:19:23.467Z,52.62
2024-01-01T08:20:23.510Z,51.75
2024-01-01T08:21:23.434Z,55.04
2024-01-01T08:22:23.441Z,52.52
2024-01-01T08:23:23.505Z,54.39
2024-01-01T08:24:23.462Z,54.85
2024-01-01T08:25:23.462Z,51.29
2024-01-01T08:26:23.444Z,53.09
2024-01-01T08:27:23.452Z,53.08
2024-01-01T08:28:23.437Z,54.74
2024-01-01T08:29:23.486Z,51.27
2024-01-01T08:30:23.436Z,55.34
2024-01-01T08:31:23.466Z,53.69
2024-01-01T08:32:23.529Z,53.02
2024-01-01T08:33:23.524Z,53.17
2024-01-01T08:34:23.444Z,54.53
2024-01-01T08:35:23.500Z,55.19
2024-01-01T08:36:23.446Z,52.64
2024-01-01T08:37:23.466Z,53.41
2024-01-01T08:38:23.485Z,53.86
2024-01-01T08:39:23.471Z,53.61
2024-01-01T08:40:23.465Z,51.57
2024-01-01T08:41:23.513Z,56.01
2024-01-01T08:42:23.440Z,54.72
2024-01-01T08:43:23.466Z,52.65
2024-01-01T08:44:23.591Z,52.98
2024-01-01T08:45:23.466Z,52.16
2024-01-01T08:46:23.469Z,53.90
2024-01-01T08:47:23.547Z,54.54
2024-01-01T08:48:23.542Z,56.55
2024-01-01T08:49:23.557Z,53.94
2024-01-01T08:50:23.524Z,54.45
2024-01-01T08:51:23.457Z,54.72
2024-01-01T08:52:23.442Z,53.64
2024-01-01T08:53:23.561Z,53.39
2024-01-01T08:54:23.449Z,53.17
2024-01-01T08:55:23.502Z,53.88
2024-01-01T08:56:23.653Z,53.24
2024-01-01T08:57:23.624Z,53.67
2024-01-01T08:58:23.676Z,51.48
2024-01-01T08:59:23.807Z,53.69
2024-01-01T09:00:23.839Z,53.23
2024-01-01T09:01:23.860Z,52.15
2024-01-01T09:02:24.047Z,52.94
2024-01-01T09:03:24.040Z,52.04
2024-01-01T09:04:24.086Z,52.20
2024-01-01T09:05:24.287Z,54.41
2024-01-01T09:06:24.327Z,54.43
2024-01-01T09:07:24.282Z,51.90
2024-01-01T09:08:24.506Z,54.03
2024-01-01T09:09:24.433Z,53.06
2024-01-01T09:10:24.524Z,53.42
2024-01-01T09:11:24.635Z,53.68
2024-01-01T09:12:24.679Z,51.54
2024-01-01T09:13:24.742Z,54.39
2024-01-01T09:14:24.878Z,51.91
2024-01-01T09:15:24.860Z,53.17
2024-01-01T09:16:24.923Z,53.31
2024-01-01T09:17:25.092Z,52.36
2024-01-01T09:18:25.397Z,55.55
2024-01-01T09:19:25.218Z,52.14
2024-01-01T09:20:25.266Z,52.50
2024-01-01T09:21:25.283Z,52.27
2024-01-01T09:22:25.351Z,52.69
2024-01-01T09:23:25.455Z,53.10
2024-01-01T09:24:25.534Z,52.27
2024-01-01T09:25:25.569Z,53.56
2024-01-01T09:26:25.702Z,52.03
2024-01-01T09:27:25.694Z,53.01
2024-01-01T09:28:25.791Z,55.93
2024-01-01T09:29:25.930Z,52.86
2024-01-01T09:30:25.923Z,53.35
2024-01-01T09:31:26.024Z,50.74
2024-01-01T09:32:26.174Z,53.62
2024-01-01T09:33:26.141Z,54.68
2024-01-01T09:34:26.189Z,56.02
2024-01-01T09:35:26.403Z,57.66
2024-01-01T09:36:27.290Z,56.02
2024-01-01T09:37:26.367Z,54.35
2024-01-01T09:38:26.501Z,53.27
2024-01-01T09:39:26.483Z,55.58
2024-01-01T09:40:26.632Z,55.80
2024-01-01T09:41:26.771Z,53.48
2024-01-01T09:42:26.746Z,55.69
2024-01-01T09:43:26.782Z,54.94
2024-01-01T09:44:26.891Z,53.69
2024-01-01T09:45:26.951Z,55.77
2024-01-01T09:46:27.007Z,53.55
2024-01-01T09:47:27.158Z,54.66
2024-01-01T09:48:27.255Z,53.02
2024-01-01T09:49:27.320Z,56.97
2024-01-01T09:50:27.330Z,56.21
2024-01-01T09:51:27.322Z,55.88
2024-01-01T09:52:27.384Z,53.32
2024-01-01T09:53:27.529Z,54.46
2024-01-01T09:54:27.524Z,53.28
2024-01-01T09:55:27.598Z,53.88
2024-01-01T09:56:27.686Z,54.99
2024-01-01T09:57:27.744Z,52.73
2024-01-01T09:58:27.802Z,56.27
2024-01-01T09:59:27.939Z,55.05
2024-01-01T10:00:27.989Z,54.65
2024-01-01T10:01:28.010Z,55.45
2024-01-01T10:02:28.067Z,55.61
2024-01-01T10:03:28.189Z,53.69
2024-01-01T10:04:28.227Z,53.63
2024-01-01T10:05:28.376Z,56.91
2024-01-01T10:06:28.353Z,55.04
2024-01-01T10:07:28.405Z,53.48
2024-01-01T10:08:28.472Z,53.97
2024-01-01T10:09:28.492Z,56.00
2024-01-01T10:10:28.597Z,56.10
2024-01-01T10:11:28.623Z,51.18
2024-01-01T10:12:28.675Z,54.29
2024-01-01T10:13:28.727Z,53.00
2024-01-01T10:14:28.845Z,57.20
2024-01-01T10:15:28.869Z,54.68
2024-01-01T10:16:28.942Z,55.62
2024-01-01T10:17:29.129Z,51.53
2024-01-01T10:18:29.252Z,52.94
2024-01-01T10:19:29.226Z,54.34
2024-01-01T10:20:29.225Z,54.36
2024-01-01T10:21:29.244Z,53.64
2024-01-01T10:22:29.323Z,55.58
2024-01-01T10:23:29.706Z,53.09
2024-01-01T10:24:32.965Z,54.60
2024-01-01T10:25:29.435Z,54.61
2024-01-01T10:26:29.423Z,54.69
2024-01-01T10:27:29.461Z,54.89
2024-01-01T10:28:29.445Z,54.94
2024-01-01T10:29:29.449Z,56.08
2024-01-01T10:30:29.450Z,52.04
2024-01-01T10:31:29.436Z,54.34
2024-01-01T10:32:29.535Z,54.42
2024-01-01T10:33:29.581Z,53.76
2024-01-01T10:34:29.517Z,54.54
2024-01-01T10:35:29.513Z,53.61
2024-01-01T10:36:29.475Z,52.95
2024-01-01T10:37:29.454Z,54.77
2024-01-01T10:38:29.564Z,54.54
2024-01-01T10:39:29.499Z,52.14
2024-01-01T10:40:29.440Z,53.07
2024-01-01T10:41:29.501Z,52.53
2024-01-01T10:42:29.459Z,51.37
2024-01-01T10:43:29.674Z,56.33
2024-01-01T10:44:29.517Z,56.40
2024-01-01T10:45:29.453Z,55.77
2024-01-01T10:46:29.478Z,53.19
2024-01-01T10:47:29.546Z,54.93
2024-01-01T10:48:31.233Z,53.65
2024-01-01T10:49:29.481Z,53.89
2024-01-01T10:50:29.706Z,55.80
2024-01-01T10:51:29.611Z,54.61
2024-01-01T10:52:29.683Z,55.50
2024-01-01T10:53:29.868Z,55.29
2024-01-01T10:54:29.838Z,55.13
2024-01-01T10:55:29.912Z,55.00
2024-01-01T10:56:29.968Z,54.95
2024-01-01T10:57:29.943Z,54.09
2024-01-01T10:58:30.010Z,55.05
2024-01-01T10:59:30.074Z,55.98
2024-01-01T11:00:30.213Z,55.81
2024-01-01T11:01:30.191Z,53.81
2024-01-01T11:02:30.313Z,53.70
2024-01-01T11:03:30.323Z,53.79
2024-01-01T11:04:30.351Z,53.01
2024-01-01T11:05:30.511Z,54.16
2024-01-01T11:06:30.442Z,50.72
2024-01-01T11:07:30.527Z,52.52
2024-01-01T11:08:30.614Z,53.25
2024-01-01T11:09:30.640Z,54.13
2024-01-01T11:10:30.681Z,54.16
2024-01-01T11:11:31.976Z,54.06
2024-01-01T11:12:30.760Z,56.37
2024-01-01T11:13:31.823Z,52.18
2024-01-01T11:14:30.959Z,55.48
2024-01-01T11:15:30.955Z,53.71
2024-01-01T11:16:30.948Z,55.68
2024-01-01T11:17:31.100Z,56.61
2024-01-01T11:18:31.190Z,56.19
2024-01-01T11:19:31.236Z,53.33
2024-01-01T11:20:31.282Z,51.50
2024-01-01T11:21:31.237Z,54.09
2024-01-01T11:22:31.529Z,53.89
2024-01-01T11:23:31.386Z,52.44
2024-01-01T11:24:36.685Z,52.07
2024-01-01T11:25:32.423Z,52.17
2024-01-01T11:26:31.397Z,52.13
2024-01-01T11:27:31.425Z,52.03
2024-01-01T11:28:31.388Z,52.33
2024-01-01T11:29:31.450Z,53.57
2024-01-01T11:30:31.446Z,53.78
2024-01-01T11:31:31.447Z,51.78
2024-01-01T11:32:31.601Z,52.52
2024-01-01T11:33:31.536Z,53.63
2024-01-01T11:34:38.212Z,54.00
2024-01-01T11:35:32.620Z,54.02
2024-01-01T11:36:31.441Z,53.80
2024-01-01T11:37:31.447Z,54.17
2024-01-01T11:38:31.540Z,53.09
2024-01-01T11:39:31.802Z,51.41
2024-01-01T11:40:31.436Z,52.80
2024-01-01T11:41:31.423Z,52.46
2024-01-01T11:42:31.456Z,53.49
2024-01-01T11:43:31.441Z,51.13
2024-01-01T11:44:31.485Z,52.22
2024-01-01T11:45:31.469Z,51.59
2024-01-01T11:46:31.488Z,56.00
2024-01-01T11:47:31.610Z,53.20
2024-01-01T11:48:35.531Z,53.58
2024-01-01T11:49:32.584Z,53.19
2024-01-01T11:50:31.614Z,53.12
2024-01-01T11:51:31.565Z,52.45
2024-01-01T11:52:31.572Z,51.44
2024-01-01T11:53:31.745Z,54.19
2024-01-01T11:54:31.602Z,54.46
2024-01-01T11:55:31.557Z,51.64
2024-01-01T11:56:31.625Z,52.31
2024-01-01T11:57:31.590Z,52.48
2024-01-01T11:58:31.615Z,53.24
2024-01-01T11:59:31.693Z,53.23
2024-01-01T12:00:31.681Z,51.19
2024-01-01T12:01:31.745Z,54.68
2024-01-01T12:02:31.760Z,52.29
2024-01-01T12:03:31.841Z,52.21
2024-01-01T12:04:31.918Z,53.03
2024-01-01T12:05:32.225Z,52.69
2024-01-01T12:06:32.005Z,52.16
2024-01-01T12:07:32.071Z,53.07
2024-01-01T12:08:32.098Z,50.00
2024-01-01T12:09:32.190Z,52.61
2024-01-01T12:10:32.263Z,52.59
2024-01-01T12:11:32.257Z,50.00
2024-01-01T12:12:32.286Z,54.47
2024-01-01T12:13:32.383Z,52.88
2024-01-01T12:14:32.401Z,55.01
2024-01-01T12:15:32.514Z,53.00
2024-01-01T12:16:32.518Z,52.24
2024-01-01T12:17:32.600Z,53.06
2024-01-01T12:18:32.668Z,52.15
2024-01-01T12:19:32.622Z,52.00
2024-01-01T12:20:32.782Z,53.62
2024-01-01T12:21:32.718Z,55.08
2024-01-01T12:22:32.783Z,51.66
2024-01-01T12:23:32.860Z,52.31
2024-01-01T12:24:32.847Z,54.87
2024-01-01T12:25:32.904Z,53.10
2024-01-01T12:26:32.971Z,52.85
2024-01-01T12:27:32.988Z,53.26
2024-01-01T12:28:33.050Z,53.30
2024-01-01T12:29:33.177Z,51.78
2024-01-01T12:30:33.169Z,52.58
2024-01-01T12:31:33.174Z,52.97
2024-01-01T12:32:33.391Z,54.54
2024-01-01T12:33:33.407Z,55.29
2024-01-01T12:34:33.355Z,53.93
2024-01-01T12:35:33.393Z,53.57
2024-01-01T12:36:33.418Z,52.88
2024-01-01T12:37:33.463Z,52.38
2024-01-01T12:38:33.525Z,55.43
2024-01-01T12:39:33.559Z,55.97
2024-01-01T12:40:33.599Z,55.02
2024-01-01T12:41:33.659Z,51.27
2024-01-01T12:42:33.688Z,54.65
2024-01-01T12:43:33.749Z,53.81
2024-01-01T12:44:33.823Z,53.87
2024-01-01T12:45:33.887Z,52.25
2024-01-01T12:46:33.887Z,55.40
2024-01-01T12:47:34.109Z,54.12
2024-01-01T12:48:34.112Z,53.01
2024-01-01T12:49:34.050Z,53.93
2024-01-01T12:50:34.244Z,53.18
2024-01-01T12:51:34.157Z,53.50
2024-01-01T12:52:34.202Z,51.99